North Carmen, New Mexico
Current Conditions -  °F | °C
As of 9:15 AM on Monday 26 Jan 2015 (Local Time) from KAXX Reporting Station
Clear Clear  
Wind Chill: 21°   Ceiling: Unl
Heat Index: 21°   Visibility: 10mi
Dew Point: 19°   Wind: 0mph
Humidity: 90%   Direction: NA
Pressure: 30.48"   Gusts: NA
Location:  36.0379°N, 105.295°W
Report Text: KAXX 261615Z AUTO 00000KT 10SM CLR M06/M07 A3048 RMK AO2 T10611075
Loading
Personal Weather Stations






























Interactive Weather Map New forecast layout! Learn more

10-Day Weather Forecast

Advertisements
Track Severe Weather on mobile